Portada
METAR-TAF:

METAR-TAF

Aeroports :

Asahikawa-airbase, Japó

latitud: 43-48N, longitud: 142-22E, altitud: 115 m

Observació

L'informe es va fer fa 42 minuts, a les 23:40 UTC
Vent 14 kt del Sud amb ràfegues de 24 kt
Temperatura 25°C
Humitat 74%
Pressió 995 hPa
Visibilitat 10 km o més
Escasses núvols a una alçada de 2000 ft
Cel ennuvolat a una alçada de 4000 ft
Cel ennuvolat a una alçada de 5000 ft

METAR: RJCA 062340Z 17014G24KT 9999 FEW020 BKN040 BKN050 25/20 Q0995 RMK 1CU020 5CU040 6CU050 A2938

Hora: 09:22 (00:22 UTC)


TAF: manca

Observacions i pronòstics meteorològics de més de 4000 aeroports (METAR i TAF).

Les estacions disponibles són els punts grocs i vermells al mapa.

Posi el ratolí al punt desitjat per veure el nom de l'estació.

Feu clic per veure les observacions i els pronòstics meteorològics.

Per canviar el mapa: feu clic els botons verds amb una creu de color negre per apropar; al botó verd amb un guió per allunyar la imatge; o en les fletxes verdes per a mapes adjacents.


METAR-TAF: